Time;durP1;ratioP1;P1;durP2;ratioP2;P2;SDS_P1;SDS_P2;PMS_P1;PMS_P2;Temp;Humidity;BMP_temperature;BMP_pressure;BME280_temperature;BME280_humidity;BME280_pressure;Samples;Min_cycle;Max_cycle;Signal;HPM_P1;HPM_P2
2022/07/17 00:00:36;;;;;;;;;;;26.10;65.90;;;;;;5074990;28;19941;-96
2022/07/17 00:03:01;;;;;;;;;;;26.10;65.60;;;;;;5075022;28;19950;-96
2022/07/17 00:05:27;;;;;;;;;;;26.10;65.70;;;;;;5074643;28;20407;-96
2022/07/17 00:07:52;;;;;;;;;;;26.10;65.80;;;;;;5074887;28;20398;-96
2022/07/17 00:10:18;;;;;;;;;;;26.20;66.00;;;;;;5074754;28;19961;-96
2022/07/17 00:12:44;;;;;;;;;;;26.20;66.00;;;;;;5075033;28;19949;-96
2022/07/17 00:15:09;;;;;;;;;;;26.20;66.10;;;;;;5074486;28;19946;-96
2022/07/17 00:17:35;;;;;;;;;;;26.20;66.20;;;;;;5074710;28;19943;-96
2022/07/17 00:20:00;;;;;;;;;;;26.20;66.50;;;;;;5074401;28;20033;-96
2022/07/17 00:22:27;;;;;;;;;;;26.10;66.60;;;;;;5074633;28;19986;-96
2022/07/17 00:24:53;;;;;;;;;;;26.20;66.70;;;;;;5074295;28;19949;-96
2022/07/17 00:27:18;;;;;;;;;;;26.20;66.80;;;;;;5074578;28;19939;-96
2022/07/17 00:29:44;;;;;;;;;;;26.10;66.90;;;;;;5074146;28;19945;-96
2022/07/17 00:32:09;;;;;;;;;;;26.10;67.10;;;;;;5074372;28;19994;-96
2022/07/17 00:34:35;;;;;;;;;;;26.10;67.30;;;;;;5074151;28;19935;-96
2022/07/17 00:37:00;;;;;;;;;;;26.00;67.60;;;;;;5073777;28;19976;-96
2022/07/17 00:39:26;;;;;;;;;;;26.00;67.50;;;;;;5074277;28;19942;-95
2022/07/17 00:41:51;;;;;;;;;;;26.00;68.20;;;;;;5074299;28;19940;-96
2022/07/17 00:44:17;;;;;;;;;;;26.00;67.90;;;;;;5073415;28;19946;-95
2022/07/17 00:46:42;;;;;;;;;;;26.00;67.50;;;;;;5074261;28;19947;-96
2022/07/17 00:49:08;;;;;;;;;;;26.00;69.40;;;;;;5073936;28;20384;-96
2022/07/17 00:51:34;;;;;;;;;;;25.80;70.30;;;;;;5074135;28;19964;-96
2022/07/17 00:54:01;;;;;;;;;;;25.80;70.40;;;;;;5073869;28;20036;-96
2022/07/17 00:56:27;;;;;;;;;;;25.70;70.70;;;;;;5073803;28;19942;-96
2022/07/17 00:58:53;;;;;;;;;;;25.60;70.90;;;;;;5074136;28;19936;-95
2022/07/17 01:01:19;;;;;;;;;;;25.70;69.20;;;;;;5073853;28;20419;-96
2022/07/17 01:03:45;;;;;;;;;;;25.70;68.80;;;;;;5074363;28;19978;-96
2022/07/17 01:06:11;;;;;;;;;;;25.70;68.50;;;;;;5074048;28;19947;-96
2022/07/17 01:08:37;;;;;;;;;;;25.80;68.20;;;;;;5074337;28;20357;-96
2022/07/17 01:11:03;;;;;;;;;;;25.80;68.00;;;;;;5073619;28;19984;-95
2022/07/17 01:13:30;;;;;;;;;;;25.80;67.60;;;;;;5074531;28;20008;-96
2022/07/17 01:15:56;;;;;;;;;;;25.70;67.40;;;;;;5073697;28;19967;-96
2022/07/17 01:18:22;;;;;;;;;;;25.80;67.30;;;;;;5073952;28;19942;-95
2022/07/17 01:20:48;;;;;;;;;;;25.80;67.30;;;;;;5055661;28;19948;-96
2022/07/17 01:23:14;;;;;;;;;;;25.80;67.40;;;;;;5073884;28;19943;-96
2022/07/17 01:25:40;;;;;;;;;;;25.80;67.50;;;;;;5073859;28;20037;-96
2022/07/17 01:28:06;;;;;;;;;;;25.80;67.60;;;;;;5074099;28;20042;-96
2022/07/17 01:30:32;;;;;;;;;;;25.80;67.50;;;;;;5073438;28;19957;-96
2022/07/17 01:32:58;;;;;;;;;;;25.70;67.70;;;;;;5074082;28;20080;-96
2022/07/17 01:35:23;;;;;;;;;;;25.70;67.80;;;;;;5073702;28;19999;-96
2022/07/17 01:37:49;;;;;;;;;;;25.70;67.80;;;;;;5073330;28;20006;-96
2022/07/17 01:40:15;;;;;;;;;;;25.70;67.80;;;;;;5073731;28;19995;-95
2022/07/17 01:42:48;;;;;;;;;;;25.70;67.90;;;;;;5073418;28;19947;-95
2022/07/17 01:45:14;;;;;;;;;;;25.70;67.90;;;;;;5074019;28;19951;-96
2022/07/17 01:47:40;;;;;;;;;;;25.60;67.90;;;;;;5073702;28;20482;-96
2022/07/17 01:50:06;;;;;;;;;;;25.70;67.70;;;;;;5073625;28;19968;-96
2022/07/17 01:52:34;;;;;;;;;;;25.60;67.60;;;;;;5073357;28;19980;-96
2022/07/17 01:54:59;;;;;;;;;;;25.60;67.20;;;;;;5075563;28;19946;-96
2022/07/17 01:57:25;;;;;;;;;;;25.70;66.60;;;;;;5076978;28;19985;-95
2022/07/17 01:59:51;;;;;;;;;;;25.70;66.40;;;;;;5077212;28;19939;-96
2022/07/17 02:02:16;;;;;;;;;;;25.70;66.30;;;;;;5076957;28;19945;-96
2022/07/17 02:04:42;;;;;;;;;;;25.60;66.20;;;;;;5077176;28;20355;-96
2022/07/17 02:07:08;;;;;;;;;;;25.60;65.90;;;;;;5076806;28;19934;-96
2022/07/17 02:09:34;;;;;;;;;;;25.50;65.50;;;;;;5076709;28;20307;-95
2022/07/17 02:11:59;;;;;;;;;;;25.50;65.30;;;;;;5077239;28;19962;-96
2022/07/17 02:14:25;;;;;;;;;;;25.50;65.20;;;;;;5076772;28;20029;-96
2022/07/17 02:16:50;;;;;;;;;;;25.50;64.90;;;;;;5058725;28;19946;-96
2022/07/17 02:19:16;;;;;;;;;;;25.40;64.70;;;;;;5077180;28;19976;-96
2022/07/17 02:21:42;;;;;;;;;;;25.40;64.60;;;;;;5076598;28;19944;-96
2022/07/17 02:24:07;;;;;;;;;;;25.40;64.40;;;;;;5077093;28;19980;-96
2022/07/17 02:26:33;;;;;;;;;;;25.30;64.00;;;;;;5076773;28;19943;-96
2022/07/17 02:28:58;;;;;;;;;;;25.30;63.80;;;;;;5077003;28;19943;-95
2022/07/17 02:31:24;;;;;;;;;;;25.30;63.50;;;;;;5076347;28;20010;-96
2022/07/17 02:33:50;;;;;;;;;;;25.30;63.50;;;;;;5076589;28;20397;-96
2022/07/17 02:36:16;;;;;;;;;;;25.30;63.30;;;;;;5082520;23;19974;-95
2022/07/17 02:38:41;;;;;;;;;;;25.30;63.00;;;;;;5076558;28;20406;-96
2022/07/17 02:41:07;;;;;;;;;;;25.30;63.00;;;;;;5076221;28;20395;-96
2022/07/17 02:43:33;;;;;;;;;;;25.20;63.10;;;;;;5076489;28;19940;-96
2022/07/17 02:45:59;;;;;;;;;;;25.20;63.40;;;;;;5076183;28;19941;-96
2022/07/17 02:48:25;;;;;;;;;;;25.10;63.80;;;;;;5076412;28;19944;-96
2022/07/17 02:50:50;;;;;;;;;;;25.00;64.10;;;;;;5076319;28;19954;-96
2022/07/17 02:53:16;;;;;;;;;;;25.00;63.90;;;;;;5076295;28;20396;-96
2022/07/17 02:55:41;;;;;;;;;;;25.00;64.10;;;;;;5075814;28;20281;-96
2022/07/17 02:58:07;;;;;;;;;;;24.90;63.80;;;;;;5076169;28;20306;-96
2022/07/17 03:00:32;;;;;;;;;;;25.00;63.50;;;;;;5075874;28;19952;-96
2022/07/17 03:02:58;;;;;;;;;;;25.00;63.20;;;;;;5076153;28;20286;-96
2022/07/17 03:05:23;;;;;;;;;;;25.10;62.80;;;;;;5075725;28;20368;-96
2022/07/17 03:07:49;;;;;;;;;;;25.10;62.20;;;;;;5075482;28;20417;-96
2022/07/17 03:10:15;;;;;;;;;;;25.10;62.20;;;;;;5075634;28;19936;-96
2022/07/17 03:12:41;;;;;;;;;;;25.10;61.90;;;;;;5057644;28;20399;-96
2022/07/17 03:15:07;;;;;;;;;;;25.10;61.80;;;;;;5075870;28;19940;-96
2022/07/17 03:17:33;;;;;;;;;;;25.00;61.90;;;;;;5075781;28;20327;-96
2022/07/17 03:19:58;;;;;;;;;;;24.90;61.60;;;;;;5075791;28;19952;-96
2022/07/17 03:22:24;;;;;;;;;;;24.90;61.40;;;;;;5075468;28;20418;-96
2022/07/17 03:24:50;;;;;;;;;;;24.90;61.10;;;;;;5075662;28;19951;-96
2022/07/17 03:27:15;;;;;;;;;;;24.90;60.70;;;;;;5075622;28;19953;-96
2022/07/17 03:29:41;;;;;;;;;;;24.90;60.40;;;;;;5075561;28;19953;-96
2022/07/17 03:32:06;;;;;;;;;;;24.90;60.20;;;;;;5075453;28;19966;-96
2022/07/17 03:34:32;;;;;;;;;;;24.80;60.10;;;;;;5075723;28;19952;-95
2022/07/17 03:36:57;;;;;;;;;;;24.80;59.90;;;;;;5074826;28;19974;-96
2022/07/17 03:39:23;;;;;;;;;;;24.80;59.90;;;;;;5075151;28;19945;-96
2022/07/17 03:41:48;;;;;;;;;;;24.90;59.80;;;;;;5057025;28;20031;-96
2022/07/17 03:44:14;;;;;;;;;;;24.80;59.60;;;;;;5075286;28;20050;-96
2022/07/17 03:46:40;;;;;;;;;;;24.80;59.70;;;;;;5057053;28;19950;-96
2022/07/17 03:49:06;;;;;;;;;;;24.80;59.70;;;;;;5075183;28;19945;-96
2022/07/17 03:51:31;;;;;;;;;;;24.80;59.50;;;;;;5074736;28;20009;-96
2022/07/17 03:53:57;;;;;;;;;;;24.80;59.60;;;;;;5075397;28;20292;-96
2022/07/17 03:56:22;;;;;;;;;;;24.90;59.60;;;;;;5074621;28;19962;-96
2022/07/17 03:58:48;;;;;;;;;;;24.90;59.80;;;;;;5075289;28;19943;-96
2022/07/17 04:01:14;;;;;;;;;;;24.90;59.50;;;;;;5074901;28;20378;-95
2022/07/17 04:03:39;;;;;;;;;;;24.90;59.50;;;;;;5074938;28;19953;-95
2022/07/17 04:06:05;;;;;;;;;;;24.80;59.60;;;;;;5074555;28;19944;-96
2022/07/17 04:08:31;;;;;;;;;;;24.90;59.50;;;;;;5074777;28;19941;-96
2022/07/17 04:10:56;;;;;;;;;;;24.90;59.40;;;;;;5074407;28;19962;-96
2022/07/17 04:13:22;;;;;;;;;;;24.90;59.40;;;;;;5074922;28;20395;-95
2022/07/17 04:15:55;;;;;;;;;;;24.90;59.60;;;;;;5056570;28;20335;-95
2022/07/17 04:18:22;;;;;;;;;;;24.90;59.60;;;;;;5074065;28;19937;-95
2022/07/17 04:20:48;;;;;;;;;;;24.90;59.80;;;;;;5074369;28;19935;-96
2022/07/17 04:23:14;;;;;;;;;;;24.90;59.70;;;;;;5074628;28;19942;-96
2022/07/17 04:25:40;;;;;;;;;;;24.90;59.80;;;;;;5074626;28;19936;-96
2022/07/17 04:28:05;;;;;;;;;;;24.90;59.60;;;;;;5074978;28;19956;-96
2022/07/17 04:30:31;;;;;;;;;;;24.90;59.80;;;;;;5074120;28;20054;-96
2022/07/17 04:32:57;;;;;;;;;;;25.00;59.70;;;;;;5074508;28;20035;-96
2022/07/17 04:35:22;;;;;;;;;;;24.90;59.70;;;;;;5074039;28;20484;-96
2022/07/17 04:37:48;;;;;;;;;;;25.00;59.70;;;;;;5074072;28;20025;-96
2022/07/17 04:40:13;;;;;;;;;;;25.00;59.70;;;;;;5074387;28;19986;-96
2022/07/17 04:42:39;;;;;;;;;;;25.00;59.60;;;;;;5074367;28;19936;-95
2022/07/17 04:45:05;;;;;;;;;;;25.10;59.50;;;;;;5074274;28;20026;-96
2022/07/17 04:47:31;;;;;;;;;;;25.10;59.60;;;;;;5073885;28;20004;-96
2022/07/17 04:49:57;;;;;;;;;;;25.20;59.50;;;;;;5074272;28;20393;-96
2022/07/17 04:52:22;;;;;;;;;;;25.20;59.50;;;;;;5055899;28;20433;-96
2022/07/17 04:54:48;;;;;;;;;;;25.20;59.30;;;;;;5074417;28;19945;-96
2022/07/17 04:57:13;;;;;;;;;;;25.30;59.30;;;;;;5073822;28;19982;-96
2022/07/17 04:59:39;;;;;;;;;;;25.30;59.10;;;;;;5074153;28;20374;-95
2022/07/17 05:02:04;;;;;;;;;;;25.40;59.00;;;;;;5074061;28;19950;-96
2022/07/17 05:04:30;;;;;;;;;;;25.40;58.70;;;;;;5074114;28;19946;-96
2022/07/17 05:06:56;;;;;;;;;;;25.50;58.80;;;;;;5073848;28;19943;-96
2022/07/17 05:09:21;;;;;;;;;;;25.50;58.90;;;;;;5074031;28;20391;-96
2022/07/17 05:11:47;;;;;;;;;;;25.50;58.50;;;;;;5073976;28;20041;-96
2022/07/17 05:14:12;;;;;;;;;;;25.60;58.30;;;;;;5074284;28;19977;-96
2022/07/17 05:16:39;;;;;;;;;;;25.60;58.60;;;;;;5073979;28;19943;-96
2022/07/17 05:19:04;;;;;;;;;;;25.50;58.70;;;;;;5055646;28;19942;-96
2022/07/17 05:21:30;;;;;;;;;;;25.50;58.70;;;;;;5073931;28;19947;-96
2022/07/17 05:23:55;;;;;;;;;;;25.40;58.80;;;;;;5073622;28;20443;-96
2022/07/17 05:26:21;;;;;;;;;;;25.40;58.70;;;;;;5073906;28;19946;-96
2022/07/17 05:28:47;;;;;;;;;;;25.40;58.40;;;;;;5073568;28;20394;-96
2022/07/17 05:31:12;;;;;;;;;;;25.50;58.50;;;;;;5059475;28;19963;-96
2022/07/17 05:33:38;;;;;;;;;;;25.50;58.40;;;;;;5078103;28;19997;-96
2022/07/17 05:36:03;;;;;;;;;;;25.50;58.80;;;;;;5077527;28;19959;-95
2022/07/17 05:38:29;;;;;;;;;;;25.50;58.80;;;;;;5077958;28;19939;-96
2022/07/17 05:40:54;;;;;;;;;;;25.60;58.20;;;;;;5077392;28;19945;-96
2022/07/17 05:43:20;;;;;;;;;;;25.70;57.90;;;;;;5077645;28;19995;-95
2022/07/17 05:45:45;;;;;;;;;;;25.70;57.50;;;;;;5077297;28;19943;-96
2022/07/17 05:48:11;;;;;;;;;;;25.80;57.10;;;;;;5077484;28;19935;-95
2022/07/17 05:50:37;;;;;;;;;;;25.80;56.80;;;;;;5059196;28;19964;-95
2022/07/17 05:53:02;;;;;;;;;;;25.90;56.60;;;;;;5077430;28;19935;-96
2022/07/17 05:55:28;;;;;;;;;;;25.90;55.40;;;;;;5076999;28;19943;-95
2022/07/17 05:57:53;;;;;;;;;;;26.00;55.20;;;;;;5077041;28;20334;-95
2022/07/17 06:00:19;;;;;;;;;;;26.10;54.80;;;;;;5077331;28;19944;-96
2022/07/17 06:02:45;;;;;;;;;;;26.20;54.70;;;;;;5076962;28;19945;-96
2022/07/17 06:05:11;;;;;;;;;;;26.20;54.10;;;;;;5077423;28;20038;-96
2022/07/17 06:07:36;;;;;;;;;;;26.30;53.50;;;;;;5076835;28;19992;-96
2022/07/17 06:10:03;;;;;;;;;;;26.30;53.20;;;;;;5077391;28;19943;-96
2022/07/17 06:12:28;;;;;;;;;;;26.30;53.00;;;;;;5076684;28;19962;-96
2022/07/17 06:14:54;;;;;;;;;;;26.30;52.90;;;;;;5076986;28;19939;-96
2022/07/17 06:17:19;;;;;;;;;;;26.30;53.00;;;;;;5076682;28;19938;-96
2022/07/17 06:19:45;;;;;;;;;;;26.40;52.80;;;;;;5077210;28;19982;-96
2022/07/17 06:22:10;;;;;;;;;;;26.40;52.50;;;;;;5076599;28;20338;-96
2022/07/17 06:24:36;;;;;;;;;;;26.50;52.30;;;;;;5076913;28;19975;-96
2022/07/17 06:27:01;;;;;;;;;;;26.50;51.90;;;;;;5076793;28;20036;-96
2022/07/17 06:29:27;;;;;;;;;;;26.50;51.40;;;;;;5077049;28;19938;-96
2022/07/17 06:31:52;;;;;;;;;;;26.60;51.10;;;;;;5076625;28;19970;-96
2022/07/17 06:34:18;;;;;;;;;;;26.60;50.50;;;;;;5077022;28;19944;-96
2022/07/17 06:36:43;;;;;;;;;;;26.70;50.70;;;;;;5076349;28;19980;-96
2022/07/17 06:39:09;;;;;;;;;;;26.70;50.40;;;;;;5076628;28;20387;-96
2022/07/17 06:41:35;;;;;;;;;;;26.70;50.20;;;;;;5075312;28;20305;-96
2022/07/17 06:44:00;;;;;;;;;;;26.70;49.80;;;;;;5076805;28;19988;-96
2022/07/17 06:46:26;;;;;;;;;;;26.80;49.70;;;;;;5076470;28;19993;-96
2022/07/17 06:48:51;;;;;;;;;;;26.80;49.30;;;;;;5076640;28;19937;-96
2022/07/17 06:51:17;;;;;;;;;;;26.90;49.10;;;;;;5076034;28;19998;-96
2022/07/17 06:53:43;;;;;;;;;;;26.90;48.80;;;;;;5076646;28;19944;-96
2022/07/17 06:56:08;;;;;;;;;;;27.00;48.70;;;;;;5075829;28;20385;-96
2022/07/17 06:58:34;;;;;;;;;;;27.00;48.40;;;;;;5076211;28;20455;-95
2022/07/17 07:01:00;;;;;;;;;;;27.10;48.20;;;;;;5075934;28;19941;-96
2022/07/17 07:03:25;;;;;;;;;;;27.20;48.30;;;;;;5076129;28;19970;-96
2022/07/17 07:05:51;;;;;;;;;;;27.20;48.00;;;;;;5057834;28;20011;-95
2022/07/17 07:08:17;;;;;;;;;;;27.30;47.60;;;;;;5076061;28;19935;-96
2022/07/17 07:10:42;;;;;;;;;;;27.30;47.50;;;;;;5075922;28;20403;-96
2022/07/17 07:13:08;;;;;;;;;;;27.30;47.50;;;;;;5076238;28;19973;-96
2022/07/17 07:15:34;;;;;;;;;;;27.40;46.50;;;;;;5075894;28;20333;-96
2022/07/17 07:17:59;;;;;;;;;;;27.40;47.40;;;;;;5076135;28;19935;-96
2022/07/17 07:20:25;;;;;;;;;;;27.50;47.40;;;;;;5075525;28;20002;-96
2022/07/17 07:22:51;;;;;;;;;;;27.50;47.30;;;;;;5076052;28;20354;-96
2022/07/17 07:25:17;;;;;;;;;;;27.60;46.10;;;;;;5075714;28;19941;-96
2022/07/17 07:27:42;;;;;;;;;;;27.60;45.30;;;;;;5075665;28;20033;-96
2022/07/17 07:30:09;;;;;;;;;;;27.60;45.40;;;;;;5057405;28;19950;-96
2022/07/17 07:32:35;;;;;;;;;;;27.70;45.80;;;;;;5075423;28;19968;-96
2022/07/17 07:35:01;;;;;;;;;;;27.80;45.40;;;;;;5075730;28;19954;-96
2022/07/17 07:37:26;;;;;;;;;;;27.80;45.20;;;;;;5075141;28;19976;-96
2022/07/17 07:39:52;;;;;;;;;;;27.80;45.10;;;;;;5075411;28;20347;-96
2022/07/17 07:42:18;;;;;;;;;;;27.80;44.80;;;;;;5075063;28;20382;-96
2022/07/17 07:44:43;;;;;;;;;;;27.90;45.10;;;;;;5075302;28;20380;-96
2022/07/17 07:47:09;;;;;;;;;;;28.00;44.90;;;;;;5074981;28;20463;-95
2022/07/17 07:49:34;;;;;;;;;;;28.00;45.10;;;;;;5075207;28;19948;-96
2022/07/17 07:52:00;;;;;;;;;;;28.00;43.90;;;;;;5074673;28;19980;-96
2022/07/17 07:54:25;;;;;;;;;;;28.00;44.50;;;;;;5075114;28;20031;-96
2022/07/17 07:56:51;;;;;;;;;;;28.20;44.90;;;;;;5074639;28;19944;-96
2022/07/17 07:59:17;;;;;;;;;;;28.20;44.60;;;;;;5075053;28;20388;-96
2022/07/17 08:01:42;;;;;;;;;;;28.40;44.00;;;;;;5074679;28;20469;-96
2022/07/17 08:04:08;;;;;;;;;;;28.40;43.80;;;;;;5075226;28;19940;-96
2022/07/17 08:06:33;;;;;;;;;;;28.40;43.40;;;;;;5056680;28;19946;-96
2022/07/17 08:08:59;;;;;;;;;;;28.50;43.60;;;;;;5074819;28;19942;-96
2022/07/17 08:11:24;;;;;;;;;;;28.60;42.90;;;;;;5074403;28;19960;-96
2022/07/17 08:13:50;;;;;;;;;;;28.60;43.20;;;;;;5074773;28;19972;-95
2022/07/17 08:16:16;;;;;;;;;;;28.60;43.40;;;;;;5074694;28;19935;-96
2022/07/17 08:18:41;;;;;;;;;;;28.60;43.50;;;;;;5056482;28;19997;-96
2022/07/17 08:21:07;;;;;;;;;;;28.60;43.30;;;;;;5074657;28;19941;-96
2022/07/17 08:23:32;;;;;;;;;;;28.70;43.30;;;;;;5056324;28;19964;-96
2022/07/17 08:25:58;;;;;;;;;;;28.70;43.20;;;;;;5074553;28;19935;-96
2022/07/17 08:28:23;;;;;;;;;;;28.70;43.40;;;;;;5074522;28;20039;-96
2022/07/17 08:30:49;;;;;;;;;;;28.80;44.10;;;;;;5074716;28;20016;-95
2022/07/17 08:33:16;;;;;;;;;;;28.80;44.20;;;;;;5056241;28;19944;-96
2022/07/17 08:35:42;;;;;;;;;;;28.90;42.80;;;;;;5074358;28;19956;-96
2022/07/17 08:38:07;;;;;;;;;;;29.00;42.80;;;;;;5073945;28;20041;-96
2022/07/17 08:40:35;;;;;;;;;;;29.00;42.50;;;;;;5074360;28;20008;-96
2022/07/17 08:43:02;;;;;;;;;;;29.10;42.60;;;;;;5074031;28;20331;-96
2022/07/17 08:45:28;;;;;;;;;;;29.20;41.70;;;;;;5074329;28;19938;-95
2022/07/17 08:47:54;;;;;;;;;;;29.20;41.60;;;;;;5074289;28;20424;-96
2022/07/17 08:50:24;;;;;;;;;;;29.30;42.00;;;;;;5074186;28;19986;-96
2022/07/17 08:52:49;;;;;;;;;;;29.30;42.00;;;;;;5056310;28;19951;-96
2022/07/17 08:55:15;;;;;;;;;;;29.40;44.30;;;;;;5074288;28;20027;-96
2022/07/17 08:57:42;;;;;;;;;;;29.50;42.60;;;;;;5073834;28;19944;-96
2022/07/17 09:00:10;;;;;;;;;;;29.60;41.70;;;;;;5074152;28;20451;-95
2022/07/17 09:02:35;;;;;;;;;;;29.60;41.30;;;;;;5074131;28;19948;-96
2022/07/17 09:05:01;;;;;;;;;;;29.60;42.20;;;;;;5073589;28;20538;-96
2022/07/17 09:07:27;;;;;;;;;;;29.60;43.90;;;;;;5074088;28;19942;-96
2022/07/17 09:09:52;;;;;;;;;;;29.70;43.50;;;;;;5074339;28;20023;-96
2022/07/17 09:12:28;;;;;;;;;;;29.60;42.30;;;;;;5073680;28;19959;-96
2022/07/17 09:14:54;;;;;;;;;;;29.60;43.50;;;;;;5074060;28;19943;-96
2022/07/17 09:17:20;;;;;;;;;;;29.70;45.80;;;;;;5073738;28;19938;-96
2022/07/17 09:19:46;;;;;;;;;;;29.60;43.70;;;;;;5073968;28;19936;-96
2022/07/17 09:22:13;;;;;;;;;;;29.60;43.10;;;;;;5073651;28;20398;-96
2022/07/17 09:24:41;;;;;;;;;;;29.60;42.30;;;;;;5073566;28;19975;-96
2022/07/17 09:27:06;;;;;;;;;;;29.60;44.80;;;;;;5073897;28;19959;-96
2022/07/17 09:29:32;;;;;;;;;;;29.60;45.60;;;;;;5073575;28;20329;-96
2022/07/17 09:31:57;;;;;;;;;;;29.60;43.60;;;;;;5073794;28;19999;-96
2022/07/17 09:34:23;;;;;;;;;;;29.60;42.70;;;;;;5073560;28;19935;-95
2022/07/17 09:37:01;;;;;;;;;;;29.60;43.90;;;;;;5073480;28;20000;-96
2022/07/17 09:39:39;;;;;;;;;;;29.70;45.20;;;;;;5073813;28;19951;-96
2022/07/17 09:42:05;;;;;;;;;;;29.80;44.60;;;;;;5055428;28;20314;-96
2022/07/17 09:44:31;;;;;;;;;;;30.00;44.00;;;;;;5073742;28;19953;-96
2022/07/17 09:46:56;;;;;;;;;;;30.10;43.60;;;;;;5055434;28;19946;-95
2022/07/17 09:49:25;;;;;;;;;;;30.20;40.00;;;;;;5073649;28;19936;-96
2022/07/17 09:51:51;;;;;;;;;;;30.30;42.80;;;;;;5073597;28;19977;-96
2022/07/17 09:54:20;;;;;;;;;;;30.40;45.30;;;;;;5073671;28;19940;-96
2022/07/17 09:56:47;;;;;;;;;;;30.50;40.50;;;;;;5073235;28;19946;-96
2022/07/17 09:59:13;;;;;;;;;;;30.60;39.20;;;;;;5073857;28;19945;-96
2022/07/17 10:01:40;;;;;;;;;;;30.60;39.50;;;;;;5073297;28;19943;-96
2022/07/17 10:04:05;;;;;;;;;;;30.70;38.70;;;;;;5073815;28;19944;-96
2022/07/17 10:06:31;;;;;;;;;;;30.80;41.50;;;;;;5073255;28;19943;-96
2022/07/17 10:08:57;;;;;;;;;;;30.90;40.80;;;;;;5055308;28;19951;-95
2022/07/17 10:11:23;;;;;;;;;;;31.00;38.60;;;;;;5055218;28;19991;-96
2022/07/17 10:13:50;;;;;;;;;;;31.10;41.20;;;;;;5073520;28;19990;-96
2022/07/17 10:16:25;;;;;;;;;;;31.10;40.30;;;;;;5073796;28;19985;-96
2022/07/17 10:18:54;;;;;;;;;;;31.20;41.80;;;;;;5077038;28;19945;-96
2022/07/17 10:21:21;;;;;;;;;;;31.30;39.60;;;;;;5076941;28;19948;-96
2022/07/17 10:23:48;;;;;;;;;;;31.40;39.30;;;;;;5076957;28;19952;-96
2022/07/17 10:26:13;;;;;;;;;;;31.50;38.70;;;;;;5076826;28;19942;-95
2022/07/17 10:28:40;;;;;;;;;;;31.50;37.50;;;;;;5076849;28;19976;-96
2022/07/17 10:31:05;;;;;;;;;;;31.50;39.50;;;;;;5076699;28;19956;-96
2022/07/17 10:33:31;;;;;;;;;;;31.60;39.00;;;;;;5077003;28;19949;-96
2022/07/17 10:35:59;;;;;;;;;;;31.60;41.00;;;;;;5083450;22;20462;-96
2022/07/17 10:38:26;;;;;;;;;;;31.70;38.30;;;;;;5076634;28;19948;-96
2022/07/17 10:40:58;;;;;;;;;;;31.80;38.20;;;;;;5076572;28;19998;-96
2022/07/17 10:43:24;;;;;;;;;;;31.90;37.90;;;;;;5076810;28;19956;-96
2022/07/17 10:45:49;;;;;;;;;;;32.00;37.50;;;;;;5076517;28;19942;-96
2022/07/17 10:48:19;;;;;;;;;;;32.10;38.10;;;;;;5058220;28;19941;-96
2022/07/17 10:50:52;;;;;;;;;;;32.20;37.80;;;;;;5058062;28;20432;-96
2022/07/17 10:53:22;;;;;;;;;;;32.30;35.70;;;;;;5076641;28;19939;-95
2022/07/17 10:55:49;;;;;;;;;;;32.30;36.50;;;;;;5075934;28;19965;-95
2022/07/17 10:58:14;;;;;;;;;;;32.40;38.80;;;;;;5076253;28;20023;-96
2022/07/17 11:00:40;;;;;;;;;;;32.60;38.50;;;;;;5075925;28;19940;-96
2022/07/17 11:03:10;;;;;;;;;;;32.60;37.40;;;;;;5076454;28;20006;-96
2022/07/17 11:05:35;;;;;;;;;;;32.60;36.30;;;;;;5076148;28;19935;-96
2022/07/17 11:08:03;;;;;;;;;;;32.50;40.10;;;;;;5076368;28;19949;-96
2022/07/17 11:10:29;;;;;;;;;;;32.50;37.80;;;;;;5075710;28;19989;-96
2022/07/17 11:13:06;;;;;;;;;;;32.70;37.90;;;;;;5076286;28;19936;-96
2022/07/17 11:15:37;;;;;;;;;;;32.80;41.00;;;;;;5075671;28;20059;-96
2022/07/17 11:18:03;;;;;;;;;;;32.90;35.70;;;;;;5057655;28;20451;-96
2022/07/17 11:20:29;;;;;;;;;;;33.00;39.00;;;;;;5076149;28;19973;-96
2022/07/17 11:22:58;;;;;;;;;;;33.10;37.30;;;;;;5075521;28;20035;-96
2022/07/17 11:25:23;;;;;;;;;;;33.30;36.80;;;;;;5075704;28;20010;-96
2022/07/17 11:27:49;;;;;;;;;;;33.50;37.70;;;;;;5074990;28;20393;-96
2022/07/17 11:30:15;;;;;;;;;;;33.50;36.00;;;;;;5075919;28;19985;-96
2022/07/17 11:32:41;;;;;;;;;;;33.70;36.40;;;;;;5075516;28;20529;-96
2022/07/17 11:35:18;;;;;;;;;;;33.90;36.50;;;;;;5075462;28;19982;-96
2022/07/17 11:37:43;;;;;;;;;;;34.10;37.90;;;;;;5075055;28;19977;-96
2022/07/17 11:40:09;;;;;;;;;;;34.20;34.50;;;;;;5075724;28;19937;-96
2022/07/17 11:42:34;;;;;;;;;;;34.40;34.60;;;;;;5075076;28;20412;-96
2022/07/17 11:45:00;;;;;;;;;;;34.30;35.70;;;;;;5075380;28;19950;-96
2022/07/17 11:47:26;;;;;;;;;;;34.50;33.80;;;;;;5074984;28;19934;-96
2022/07/17 11:50:03;;;;;;;;;;;34.60;34.30;;;;;;5075250;28;19939;-96
2022/07/17 11:52:38;;;;;;;;;;;34.70;36.10;;;;;;5075112;28;20014;-96
2022/07/17 11:55:04;;;;;;;;;;;34.90;34.20;;;;;;5075239;28;19988;-96
2022/07/17 11:57:41;;;;;;;;;;;35.10;34.20;;;;;;5074798;28;20397;-96
2022/07/17 12:00:07;;;;;;;;;;;35.20;33.90;;;;;;5075321;28;19944;-96
2022/07/17 12:02:34;;;;;;;;;;;35.40;32.90;;;;;;5074697;28;19935;-96
2022/07/17 12:04:59;;;;;;;;;;;35.60;33.40;;;;;;5075221;28;19939;-96
2022/07/17 12:07:26;;;;;;;;;;;35.90;30.20;;;;;;5074614;28;19951;-96
2022/07/17 12:09:52;;;;;;;;;;;36.10;30.80;;;;;;5074814;28;19942;-96
2022/07/17 12:12:18;;;;;;;;;;;36.40;29.90;;;;;;5074471;28;20017;-96
2022/07/17 12:14:51;;;;;;;;;;;36.10;31.40;;;;;;5074795;28;19938;-96
2022/07/17 12:17:16;;;;;;;;;;;36.10;29.70;;;;;;5074465;28;19939;-96
2022/07/17 12:19:42;;;;;;;;;;;36.10;31.00;;;;;;5074970;28;19963;-96
2022/07/17 12:22:07;;;;;;;;;;;36.20;30.20;;;;;;5074651;28;19981;-96
2022/07/17 12:24:38;;;;;;;;;;;36.40;32.20;;;;;;5074897;28;19942;-96
2022/07/17 12:27:05;;;;;;;;;;;36.60;33.50;;;;;;5074526;28;19941;-96
2022/07/17 12:29:31;;;;;;;;;;;36.60;30.50;;;;;;5074537;28;20032;-96
2022/07/17 12:32:02;;;;;;;;;;;37.20;30.40;;;;;;5074237;28;20018;-96
2022/07/17 12:34:28;;;;;;;;;;;37.70;28.30;;;;;;5074744;28;19936;-96
2022/07/17 12:36:53;;;;;;;;;;;38.10;30.10;;;;;;5073930;28;20451;-96
2022/07/17 12:39:19;;;;;;;;;;;38.00;29.40;;;;;;5073664;28;20412;-96
2022/07/17 12:41:46;;;;;;;;;;;38.20;29.90;;;;;;5074087;28;19940;-96
2022/07/17 12:44:11;;;;;;;;;;;38.20;29.30;;;;;;5074611;28;20457;-96
2022/07/17 12:46:37;;;;;;;;;;;38.80;26.70;;;;;;5074348;28;19995;-96
2022/07/17 12:49:03;;;;;;;;;;;39.10;27.20;;;;;;5074309;28;19981;-96
2022/07/17 12:51:30;;;;;;;;;;;39.40;27.20;;;;;;5055912;28;20010;-96
2022/07/17 12:53:55;;;;;;;;;;;39.60;26.30;;;;;;5074506;28;19936;-96
2022/07/17 12:56:21;;;;;;;;;;;40.10;26.50;;;;;;5073909;28;19971;-96
2022/07/17 12:58:46;;;;;;;;;;;40.30;25.70;;;;;;5074505;28;19943;-96
2022/07/17 13:01:12;;;;;;;;;;;40.60;25.50;;;;;;5074207;28;19942;-96
2022/07/17 13:03:38;;;;;;;;;;;40.70;25.40;;;;;;5074521;28;19933;-96
2022/07/17 13:06:03;;;;;;;;;;;41.10;25.00;;;;;;5073865;28;19945;-96
2022/07/17 13:08:30;;;;;;;;;;;41.30;24.50;;;;;;5074533;28;19947;-96
2022/07/17 13:10:55;;;;;;;;;;;41.80;24.40;;;;;;5055930;28;19964;-96
2022/07/17 13:13:21;;;;;;;;;;;42.20;23.20;;;;;;5074295;28;20035;-96
2022/07/17 13:15:47;;;;;;;;;;;42.70;24.30;;;;;;5074157;28;19948;-96
2022/07/17 13:18:13;;;;;;;;;;;43.10;23.70;;;;;;5074277;28;19947;-96
2022/07/17 13:20:39;;;;;;;;;;;42.70;23.40;;;;;;5073845;28;19963;-96
2022/07/17 13:23:04;;;;;;;;;;;41.90;24.60;;;;;;5074154;28;19951;-96
2022/07/17 13:25:31;;;;;;;;;;;41.50;25.60;;;;;;5074146;28;20023;-96
2022/07/17 13:27:56;;;;;;;;;;;41.70;24.30;;;;;;5074351;28;20375;-96
2022/07/17 13:30:22;;;;;;;;;;;42.20;23.50;;;;;;5073965;28;19997;-96
2022/07/17 13:32:47;;;;;;;;;;;42.40;23.90;;;;;;5073802;28;20423;-96
2022/07/17 13:35:13;;;;;;;;;;;43.30;21.90;;;;;;5073733;28;19943;-96
2022/07/17 13:37:39;;;;;;;;;;;44.00;21.30;;;;;;5073506;28;19978;-96
2022/07/17 13:40:05;;;;;;;;;;;44.30;23.10;;;;;;5073776;28;19944;-96
2022/07/17 13:42:31;;;;;;;;;;;43.80;22.90;;;;;;5055455;28;19940;-96
2022/07/17 13:44:57;;;;;;;;;;;44.00;22.50;;;;;;5074032;28;19949;-96
2022/07/17 13:47:22;;;;;;;;;;;44.50;22.00;;;;;;5073465;28;19941;-96
2022/07/17 13:49:48;;;;;;;;;;;44.70;20.50;;;;;;5073984;28;19948;-96
2022/07/17 13:52:13;;;;;;;;;;;45.20;21.00;;;;;;5077053;28;20063;-96
2022/07/17 13:54:39;;;;;;;;;;;44.60;22.10;;;;;;5059252;28;20428;-96
2022/07/17 13:57:04;;;;;;;;;;;44.60;21.00;;;;;;5077004;28;19937;-96
2022/07/17 13:59:30;;;;;;;;;;;44.80;21.10;;;;;;5077370;28;19992;-96
2022/07/17 14:01:56;;;;;;;;;;;44.50;21.00;;;;;;5077043;28;19943;-96
2022/07/17 14:04:21;;;;;;;;;;;44.50;21.00;;;;;;5059099;28;19955;-96
2022/07/17 14:06:47;;;;;;;;;;;44.50;21.20;;;;;;5076998;28;19938;-96
2022/07/17 14:09:12;;;;;;;;;;;44.60;22.80;;;;;;5077179;28;20321;-96